Terminal Aerodrome Forecast
Issued by NWS Charleston, WV

Current Version | Previous Version | Graphics & Text | Print | Product List | Glossary On
Versions: 1 2 3 4 5 6 7 8 9 10 11 12 13 14 15 16 17 18 19 20 21 22 23 24 25 26 27 28 29 30
000
FTUS41 KRLX 220915 AAA
TAFHTS
TAF AMD
KHTS 220915Z 2209/2306 10003KT P6SM BKN080
     FM221800 12007KT P6SM -SHRA OVC050
     FM222200 11006KT P6SM BKN040
     FM230300 05005KT 5SM -SHRA OVC025=

USA.gov is the U.S. government's official web portal to all federal, state and local government web resources and services.